createdAt,value
2019-02-12T00:00:51.071Z,98076.12
2019-02-12T00:03:20.181Z,98087.83
2019-02-12T00:05:49.286Z,98092.27
2019-02-12T00:08:18.402Z,98094.73
2019-02-12T00:10:47.487Z,98108.61
2019-02-12T00:13:16.585Z,98112.57
2019-02-12T00:15:45.678Z,98119.19
2019-02-12T00:18:14.810Z,98128.76
2019-02-12T00:20:43.888Z,98124.09
2019-02-12T00:23:12.996Z,98128.41
2019-02-12T00:25:42.084Z,98127.44
2019-02-12T00:28:11.193Z,98119.81
2019-02-12T00:30:40.280Z,98117.67
2019-02-12T00:33:09.382Z,98116.52
2019-02-12T00:35:38.467Z,98113.55
2019-02-12T00:38:07.567Z,98118.86
2019-02-12T00:40:36.664Z,98102.48
2019-02-12T00:43:05.758Z,98101.98
2019-02-12T00:45:34.841Z,98110.25
2019-02-12T00:48:03.946Z,98113.73
2019-02-12T00:50:33.044Z,98112.56
2019-02-12T00:53:02.148Z,98118.86
2019-02-12T00:55:31.232Z,98124.45
2019-02-12T00:58:00.330Z,98123.48
2019-02-12T01:00:29.414Z,98129.73
2019-02-12T01:02:58.525Z,98122.80
2019-02-12T01:05:27.638Z,98131.39
2019-02-12T01:07:56.723Z,98124.45
2019-02-12T01:10:25.833Z,98125.59
2019-02-12T01:12:54.920Z,98128.39
2019-02-12T01:15:24.032Z,98135.63
2019-02-12T01:17:53.108Z,98143.40
2019-02-12T01:20:22.212Z,98139.89
2019-02-12T01:22:51.297Z,98144.00
2019-02-12T01:25:20.413Z,98137.94
2019-02-12T01:27:49.504Z,98136.28
2019-02-12T01:30:18.611Z,98138.77
2019-02-12T01:32:47.700Z,98140.42
2019-02-12T01:35:16.809Z,98138.27
2019-02-12T01:37:45.887Z,98150.49
2019-02-12T01:40:15.189Z,98152.18
2019-02-12T01:42:44.284Z,98141.47
2019-02-12T01:45:13.875Z,98147.85
2019-02-12T01:47:42.969Z,98149.81
2019-02-12T01:50:13.698Z,98148.49
2019-02-12T01:52:42.801Z,98155.42
2019-02-12T01:55:11.911Z,98158.41
2019-02-12T01:57:40.988Z,98157.73
2019-02-12T02:00:14.604Z,98157.42
2019-02-12T02:02:43.887Z,98162.37
2019-02-12T02:05:13.015Z,98162.71
2019-02-12T02:07:42.098Z,98159.58
2019-02-12T02:10:16.458Z,98166.66
2019-02-12T02:12:45.545Z,98162.40
2019-02-12T02:15:14.847Z,98162.76
2019-02-12T02:17:43.943Z,98177.31
2019-02-12T02:20:13.621Z,98174.81
2019-02-12T02:22:42.719Z,98170.03
2019-02-12T02:25:11.912Z,98168.70
2019-02-12T02:27:40.981Z,98167.70
2019-02-12T02:30:11.354Z,98161.08
2019-02-12T02:32:40.433Z,98158.59
2019-02-12T02:35:09.559Z,98155.49
2019-02-12T02:37:38.674Z,98166.05
2019-02-12T02:40:08.410Z,98171.27
2019-02-12T02:42:37.496Z,98163.02
2019-02-12T02:45:06.797Z,98160.52
2019-02-12T02:47:35.915Z,98169.27
2019-02-12T02:50:05.279Z,98170.72
2019-02-12T02:52:34.386Z,98170.59
2019-02-12T02:55:03.486Z,98168.57
2019-02-12T02:57:32.634Z,98179.14
2019-02-12T03:00:01.686Z,98179.76
2019-02-12T03:02:30.804Z,98180.09
2019-02-12T03:04:59.923Z,98181.77
2019-02-12T03:07:29.028Z,98191.00
2019-02-12T03:09:58.112Z,98183.78
2019-02-12T03:12:27.225Z,98187.69
2019-02-12T03:14:56.349Z,98192.95
2019-02-12T03:17:25.422Z,98187.63
2019-02-12T03:19:54.503Z,98188.23
2019-02-12T03:22:23.609Z,98192.95
2019-02-12T03:24:52.702Z,98181.08
2019-02-12T03:27:22.310Z,98183.86
2019-02-12T03:29:51.396Z,98182.52
2019-02-12T03:32:20.639Z,98185.31
2019-02-12T03:34:49.785Z,98186.21
2019-02-12T03:37:18.890Z,98176.44
2019-02-12T03:39:47.986Z,98179.91
2019-02-12T03:42:17.091Z,98182.05
2019-02-12T03:44:46.181Z,98186.64
2019-02-12T03:47:15.291Z,98189.63
2019-02-12T03:49:44.378Z,98186.63
2019-02-12T03:52:13.478Z,98190.44
2019-02-12T03:54:42.666Z,98196.55
2019-02-12T03:57:11.772Z,98194.22
2019-02-12T03:59:40.864Z,98199.33
2019-02-12T04:02:09.974Z,98205.29
2019-02-12T04:04:39.093Z,98214.38
2019-02-12T04:07:08.211Z,98216.33
2019-02-12T04:09:37.295Z,98221.91
2019-02-12T04:12:06.404Z,98223.98
2019-02-12T04:14:35.494Z,98221.69
2019-02-12T04:17:04.609Z,98227.27
2019-02-12T04:19:33.702Z,98227.95
2019-02-12T04:22:02.816Z,98237.19
2019-02-12T04:24:31.908Z,98232.53
2019-02-12T04:27:01.023Z,98231.41
2019-02-12T04:29:30.111Z,98221.34
2019-02-12T04:31:59.218Z,98218.50
2019-02-12T04:34:28.308Z,98228.34
2019-02-12T04:36:57.412Z,98224.89
2019-02-12T04:39:26.498Z,98229.81
2019-02-12T04:41:55.611Z,98225.30
2019-02-12T04:44:24.701Z,98219.99
2019-02-12T04:46:53.789Z,98224.22
2019-02-12T04:49:22.900Z,98221.92
2019-02-12T04:51:51.995Z,98220.73
2019-02-12T04:54:21.106Z,98223.80
2019-02-12T04:56:50.211Z,98225.64
2019-02-12T04:59:19.312Z,98214.61
2019-02-12T05:01:48.405Z,98218.91
2019-02-12T05:04:17.524Z,98217.67
2019-02-12T05:06:46.632Z,98215.39
2019-02-12T05:09:18.068Z,98213.42
2019-02-12T05:11:52.805Z,98206.69
2019-02-12T05:14:21.950Z,98203.86
2019-02-12T05:16:51.031Z,98203.23
2019-02-12T05:19:20.131Z,98206.22
2019-02-12T05:21:49.212Z,98207.93
2019-02-12T05:24:18.323Z,98213.55
2019-02-12T05:26:47.417Z,98220.00
2019-02-12T05:29:18.298Z,98219.84
2019-02-12T05:31:47.411Z,98221.02
2019-02-12T05:34:16.569Z,98225.47
2019-02-12T05:36:45.691Z,98222.49
2019-02-12T05:39:14.792Z,98231.28
2019-02-12T05:41:43.909Z,98225.81
2019-02-12T05:44:12.981Z,98225.81
2019-02-12T05:46:42.070Z,98225.78
2019-02-12T05:49:11.146Z,98219.17
2019-02-12T05:51:40.250Z,98222.15
2019-02-12T05:54:09.337Z,98224.61
2019-02-12T05:56:38.456Z,98228.86
2019-02-12T05:59:07.535Z,98224.39
2019-02-12T06:01:36.640Z,98227.05
2019-02-12T06:04:05.731Z,98223.72
2019-02-12T06:06:34.852Z,98227.38
2019-02-12T06:09:04.754Z,98229.33
2019-02-12T06:11:33.859Z,98227.66
2019-02-12T06:14:02.976Z,98234.74
2019-02-12T06:16:32.063Z,98235.58
2019-02-12T06:19:01.144Z,98240.23
2019-02-12T06:21:30.239Z,98247.82
2019-02-12T06:23:59.323Z,98241.91
2019-02-12T06:26:28.430Z,98251.78
2019-02-12T06:28:57.512Z,98259.70
2019-02-12T06:31:26.605Z,98254.81
2019-02-12T06:33:55.698Z,98256.08
2019-02-12T06:36:24.805Z,98256.06
2019-02-12T06:38:53.903Z,98258.97
2019-02-12T06:41:22.992Z,98253.02
2019-02-12T06:43:52.155Z,98252.95
2019-02-12T06:46:21.198Z,98251.82
2019-02-12T06:48:50.318Z,98254.23
2019-02-12T06:51:19.404Z,98247.87
2019-02-12T06:53:48.515Z,98257.22
2019-02-12T06:56:17.596Z,98262.49
2019-02-12T06:58:46.784Z,98264.33
2019-02-12T07:01:15.866Z,98276.83
2019-02-12T07:03:56.922Z,98281.54
2019-02-12T07:06:59.308Z,98283.98
2019-02-12T07:09:36.091Z,98284.89
2019-02-12T07:12:41.532Z,98286.35
2019-02-12T07:15:20.711Z,98288.99
2019-02-12T07:18:21.374Z,98293.67
2019-02-12T07:21:05.828Z,98294.16
2019-02-12T07:24:07.964Z,98299.00
2019-02-12T07:26:55.618Z,98301.02
2019-02-12T07:30:11.393Z,98292.31
2019-02-12T07:33:00.388Z,98295.31
2019-02-12T07:35:53.585Z,98302.70
2019-02-12T07:39:08.398Z,98307.69
2019-02-12T07:42:00.442Z,98310.72
2019-02-12T07:45:08.755Z,98316.39
2019-02-12T07:48:17.044Z,98323.33
2019-02-12T07:51:00.962Z,98328.31
2019-02-12T07:53:53.975Z,98331.63
2019-02-12T07:57:05.723Z,98333.28
2019-02-12T08:00:14.775Z,98336.75
2019-02-12T08:03:39.933Z,98335.95
2019-02-12T08:06:30.909Z,98342.22
2019-02-12T08:09:35.244Z,98343.05
2019-02-12T08:12:29.427Z,98350.13
2019-02-12T08:15:07.530Z,98350.45
2019-02-12T08:18:00.587Z,98360.73
2019-02-12T08:21:07.996Z,98362.05
2019-02-12T08:24:19.117Z,98365.02
2019-02-12T08:27:10.146Z,98373.97
2019-02-12T08:30:06.926Z,98385.53
2019-02-12T08:33:15.466Z,98388.69
2019-02-12T08:36:07.610Z,98391.83
2019-02-12T08:39:17.139Z,98396.80
2019-02-12T08:42:28.756Z,98400.27
2019-02-12T08:45:43.648Z,98402.08
2019-02-12T08:48:51.467Z,98403.41
2019-02-12T08:51:59.857Z,98403.41
2019-02-12T08:55:01.093Z,98402.09
2019-02-12T08:57:52.541Z,98404.74
2019-02-12T09:01:08.570Z,98411.66
2019-02-12T09:04:21.858Z,98404.73
2019-02-12T09:07:12.101Z,98406.38
2019-02-12T09:10:14.628Z,98411.17
2019-02-12T09:13:23.129Z,98416.64
2019-02-12T09:16:36.149Z,98425.06
2019-02-12T09:19:29.437Z,98419.11
2019-02-12T09:22:40.736Z,98418.95
2019-02-12T09:25:37.747Z,98423.21
2019-02-12T09:28:24.029Z,98425.33
2019-02-12T09:31:34.999Z,98442.60
2019-02-12T09:34:29.737Z,98442.25
2019-02-12T09:37:34.317Z,98436.28
2019-02-12T09:40:19.542Z,98429.86
2019-02-12T09:43:23.095Z,98430.77
2019-02-12T09:46:33.367Z,98430.05
2019-02-12T09:49:53.255Z,98439.94
2019-02-12T09:52:52.796Z,98449.72
2019-02-12T09:56:02.605Z,98452.71
2019-02-12T09:59:24.571Z,98450.03
2019-02-12T10:02:25.659Z,98455.74
2019-02-12T10:05:22.782Z,98451.79
2019-02-12T10:08:38.401Z,98454.13
2019-02-12T10:11:42.737Z,98457.97
2019-02-12T10:14:36.368Z,98457.70
2019-02-12T10:17:39.643Z,98460.02
2019-02-12T10:20:49.035Z,98455.46
2019-02-12T10:23:59.067Z,98460.33
2019-02-12T10:26:28.231Z,98469.22
2019-02-12T10:29:39.976Z,98465.56
2019-02-12T10:32:09.031Z,98461.22
2019-02-12T10:34:38.184Z,98468.16
2019-02-12T10:37:07.265Z,98474.23
2019-02-12T10:39:36.368Z,98474.46
2019-02-12T10:42:05.442Z,98479.83
2019-02-12T10:44:34.590Z,98483.40
2019-02-12T10:47:03.675Z,98488.03
2019-02-12T10:49:32.776Z,98497.41
2019-02-12T10:52:01.856Z,98490.72
2019-02-12T10:54:30.957Z,98493.48
2019-02-12T10:57:00.043Z,98493.84
2019-02-12T10:59:29.172Z,98496.50
2019-02-12T11:01:58.249Z,98497.02
2019-02-12T11:04:27.404Z,98494.37
2019-02-12T11:06:56.499Z,98492.08
2019-02-12T11:09:25.604Z,98491.13
2019-02-12T11:11:54.675Z,98487.97
2019-02-12T11:14:23.754Z,98492.31
2019-02-12T11:16:52.858Z,98488.72
2019-02-12T11:19:21.936Z,98492.48
2019-02-12T11:21:51.045Z,98496.05
2019-02-12T11:24:20.123Z,98492.31
2019-02-12T11:26:49.223Z,98492.13
2019-02-12T11:29:18.298Z,98490.83
2019-02-12T11:31:47.396Z,98494.39
2019-02-12T11:34:16.465Z,98488.24
2019-02-12T11:36:45.558Z,98491.33
2019-02-12T11:39:14.633Z,98485.94
2019-02-12T11:41:43.738Z,98484.19
2019-02-12T11:44:12.806Z,98489.37
2019-02-12T11:46:41.911Z,98488.08
2019-02-12T11:49:10.985Z,98482.05
2019-02-12T11:51:40.087Z,98481.16
2019-02-12T11:54:09.171Z,98481.05
2019-02-12T11:56:38.280Z,98473.57
2019-02-12T11:59:07.370Z,98464.57
2019-02-12T12:01:36.474Z,98471.31
2019-02-12T12:04:05.556Z,98465.04
2019-02-12T12:06:34.661Z,98461.11
2019-02-12T12:09:05.164Z,98461.48
2019-02-12T12:11:34.320Z,98461.23
2019-02-12T12:14:03.577Z,98472.16
2019-02-12T12:16:32.651Z,98473.38
2019-02-12T12:19:01.754Z,98478.63
2019-02-12T12:21:30.840Z,98476.13
2019-02-12T12:23:59.944Z,98484.27
2019-02-12T12:26:29.019Z,98483.43
2019-02-12T12:28:58.900Z,98479.14
2019-02-12T12:31:27.982Z,98485.64
2019-02-12T12:33:57.087Z,98483.84
2019-02-12T12:36:26.167Z,98489.36
2019-02-12T12:38:55.372Z,98481.88
2019-02-12T12:41:24.450Z,98474.30
2019-02-12T12:43:53.562Z,98476.29
2019-02-12T12:46:22.641Z,98470.34
2019-02-12T12:48:51.761Z,98477.33
2019-02-12T12:51:20.846Z,98481.45
2019-02-12T12:53:49.955Z,98479.72
2019-02-12T12:56:19.027Z,98486.97
2019-02-12T12:58:48.130Z,98483.56
2019-02-12T13:01:17.205Z,98483.83
2019-02-12T13:03:46.316Z,98482.62
2019-02-12T13:06:15.417Z,98484.77
2019-02-12T13:08:44.595Z,98491.87
2019-02-12T13:11:13.695Z,98485.90
2019-02-12T13:13:42.782Z,98485.08
2019-02-12T13:16:11.867Z,98482.92
2019-02-12T13:18:40.945Z,98483.61
2019-02-12T13:21:10.131Z,98487.14
2019-02-12T13:23:39.207Z,98485.91
2019-02-12T13:26:08.311Z,98482.95
2019-02-12T13:28:37.406Z,98474.66
2019-02-12T13:31:06.506Z,98474.34
2019-02-12T13:33:35.588Z,98481.33
2019-02-12T13:36:05.064Z,98483.77
2019-02-12T13:38:34.167Z,98491.06
2019-02-12T13:41:03.257Z,98484.68
2019-02-12T13:43:32.366Z,98490.55
2019-02-12T13:46:01.453Z,98489.22
2019-02-12T13:48:30.640Z,98486.88
2019-02-12T13:50:59.720Z,98490.09
2019-02-12T13:53:28.820Z,98488.62
2019-02-12T13:55:57.894Z,98485.16
2019-02-12T13:58:26.984Z,98481.34
2019-02-12T14:00:56.054Z,98488.43
2019-02-12T14:03:25.170Z,98490.34
2019-02-12T14:05:54.351Z,98492.31
2019-02-12T14:08:23.466Z,98488.00
2019-02-12T14:10:52.541Z,98486.02
2019-02-12T14:13:21.651Z,98490.70
2019-02-12T14:15:50.727Z,98488.17
2019-02-12T14:18:19.828Z,98484.00
2019-02-12T14:20:48.912Z,98479.64
2019-02-12T14:23:18.009Z,98477.86
2019-02-12T14:25:47.102Z,98475.76
2019-02-12T14:28:16.194Z,98475.03
2019-02-12T14:30:45.293Z,98468.83
2019-02-12T14:33:14.480Z,98474.20
2019-02-12T14:35:43.586Z,98476.80
2019-02-12T14:38:12.658Z,98477.84
2019-02-12T14:40:41.768Z,98475.20
2019-02-12T14:43:14.009Z,98488.36
2019-02-12T14:45:41.677Z,98485.75
2019-02-12T14:48:10.767Z,98483.43
2019-02-12T14:50:58.895Z,98489.69
2019-02-12T14:53:27.981Z,98498.14
2019-02-12T14:55:57.063Z,98502.65
2019-02-12T14:58:26.170Z,98501.61
2019-02-12T15:00:55.255Z,98494.72
2019-02-12T15:03:24.363Z,98486.31
2019-02-12T15:05:53.438Z,98492.08
2019-02-12T15:08:22.586Z,98484.25
2019-02-12T15:10:51.667Z,98485.48
2019-02-12T15:13:20.775Z,98481.71
2019-02-12T15:15:49.849Z,98483.09
2019-02-12T15:18:18.969Z,98472.28
2019-02-12T15:20:48.033Z,98482.61
2019-02-12T15:23:17.134Z,98480.83
2019-02-12T15:25:46.219Z,98484.34
2019-02-12T15:28:15.351Z,98479.86
2019-02-12T15:30:44.425Z,98479.86
2019-02-12T15:33:13.526Z,98475.78
2019-02-12T15:35:42.604Z,98465.95
2019-02-12T15:38:11.705Z,98470.47
2019-02-12T15:40:40.786Z,98485.54
2019-02-12T15:43:09.888Z,98488.05
2019-02-12T15:45:38.961Z,98497.77
2019-02-12T15:48:08.070Z,98500.83
2019-02-12T15:50:37.300Z,98504.73
2019-02-12T15:53:06.327Z,98502.97
2019-02-12T15:55:42.121Z,98507.91
2019-02-12T15:58:08.036Z,98513.38
2019-02-12T16:00:37.174Z,98521.20
2019-02-12T16:03:06.247Z,98531.36
2019-02-12T16:05:35.360Z,98527.56
2019-02-12T16:08:05.632Z,98525.41
2019-02-12T16:10:35.268Z,98525.20
2019-02-12T16:13:04.340Z,98524.70
2019-02-12T16:15:33.437Z,98522.01
2019-02-12T16:18:02.620Z,98518.81
2019-02-12T16:20:33.065Z,98522.09
2019-02-12T16:23:02.261Z,98522.55
2019-02-12T16:25:31.359Z,98519.26
2019-02-12T16:28:00.453Z,98517.30
2019-02-12T16:30:29.611Z,98523.28
2019-02-12T16:32:58.690Z,98520.40
2019-02-12T16:35:27.775Z,98515.48
2019-02-12T16:37:56.878Z,98519.66
2019-02-12T16:40:26.092Z,98514.58
2019-02-12T16:42:55.170Z,98524.06
2019-02-12T16:45:31.025Z,98523.45
2019-02-12T16:48:00.312Z,98524.00
2019-02-12T16:50:29.390Z,98526.38
2019-02-12T16:52:58.501Z,98531.53
2019-02-12T16:55:27.579Z,98541.66
2019-02-12T16:57:56.685Z,98545.33
2019-02-12T17:00:25.779Z,98539.05
2019-02-12T17:02:54.903Z,98547.03
2019-02-12T17:05:23.984Z,98540.41
2019-02-12T17:07:53.077Z,98547.06
2019-02-12T17:10:22.154Z,98559.80
2019-02-12T17:12:51.266Z,98560.33
2019-02-12T17:15:20.348Z,98567.58
2019-02-12T17:17:49.452Z,98560.63
2019-02-12T17:20:18.875Z,98565.28
2019-02-12T17:22:48.445Z,98562.48
2019-02-12T17:25:17.538Z,98571.08
2019-02-12T17:27:48.031Z,98568.59
2019-02-12T17:30:17.239Z,98576.17
2019-02-12T17:32:46.348Z,98576.81
2019-02-12T17:35:15.447Z,98580.14
2019-02-12T17:37:44.539Z,98575.30
2019-02-12T17:40:13.699Z,98579.42
2019-02-12T17:42:42.811Z,98584.03
2019-02-12T17:45:13.067Z,98576.07
2019-02-12T17:47:42.175Z,98582.02
2019-02-12T17:50:11.999Z,98581.80
2019-02-12T17:52:41.103Z,98598.93
2019-02-12T17:55:10.296Z,98588.88
2019-02-12T17:57:39.412Z,98591.95
2019-02-12T18:00:13.941Z,98597.09
2019-02-12T18:02:43.039Z,98601.89
2019-02-12T18:05:12.122Z,98599.41
2019-02-12T18:07:41.231Z,98602.06
2019-02-12T18:10:10.461Z,98595.02
2019-02-12T18:12:39.542Z,98596.94
2019-02-12T18:15:09.332Z,98599.79
2019-02-12T18:17:38.422Z,98596.78
2019-02-12T18:20:08.103Z,98587.11
2019-02-12T18:22:37.197Z,98585.98
2019-02-12T18:25:06.888Z,98598.13
2019-02-12T18:27:35.968Z,98598.78
2019-02-12T18:30:06.208Z,98595.75
2019-02-12T18:32:35.286Z,98599.24
2019-02-12T18:35:04.387Z,98603.69
2019-02-12T18:37:33.476Z,98603.66
2019-02-12T18:40:02.578Z,98604.22
2019-02-12T18:42:31.659Z,98614.55
2019-02-12T18:45:00.757Z,98609.48
2019-02-12T18:47:29.838Z,98618.62
2019-02-12T18:49:58.952Z,98621.84
2019-02-12T18:52:28.035Z,98618.02
2019-02-12T18:54:57.143Z,98614.02
2019-02-12T18:57:26.233Z,98608.92
2019-02-12T18:59:55.343Z,98613.39
2019-02-12T19:02:24.922Z,98621.44
2019-02-12T19:04:54.031Z,98621.81
2019-02-12T19:07:23.117Z,98623.91
2019-02-12T19:09:52.212Z,98620.84
2019-02-12T19:12:21.307Z,98626.55
2019-02-12T19:14:50.420Z,98621.48
2019-02-12T19:17:19.506Z,98620.33
2019-02-12T19:19:48.625Z,98616.66
2019-02-12T19:22:17.708Z,98618.52
2019-02-12T19:24:46.824Z,98615.81
2019-02-12T19:27:15.907Z,98620.13
2019-02-12T19:29:45.022Z,98611.55
2019-02-12T19:32:14.180Z,98608.50
2019-02-12T19:34:43.360Z,98615.02
2019-02-12T19:37:12.465Z,98615.73
2019-02-12T19:39:41.610Z,98611.20
2019-02-12T19:42:10.683Z,98612.23
2019-02-12T19:44:39.796Z,98617.50
2019-02-12T19:47:08.885Z,98623.69
2019-02-12T19:49:38.001Z,98629.15
2019-02-12T19:52:07.082Z,98629.14
2019-02-12T19:54:36.196Z,98632.19
2019-02-12T19:57:05.450Z,98637.20
2019-02-12T19:59:34.564Z,98640.38
2019-02-12T20:02:03.648Z,98646.00
2019-02-12T20:04:32.765Z,98651.81
2019-02-12T20:07:01.852Z,98643.56
2019-02-12T20:09:30.943Z,98635.02
2019-02-12T20:12:00.052Z,98628.31
2019-02-12T20:14:29.642Z,98634.55
2019-02-12T20:16:58.758Z,98644.22
2019-02-12T20:19:27.857Z,98636.87
2019-02-12T20:21:56.984Z,98633.41
2019-02-12T20:24:26.069Z,98637.66
2019-02-12T20:26:56.063Z,98631.20
2019-02-12T20:29:25.167Z,98625.55
2019-02-12T20:31:54.305Z,98620.90
2019-02-12T20:34:23.403Z,98627.70
2019-02-12T20:36:52.513Z,98625.61
2019-02-12T20:39:21.617Z,98626.21
2019-02-12T20:41:50.740Z,98630.59
2019-02-12T20:44:19.823Z,98629.38
2019-02-12T20:46:48.936Z,98639.25
2019-02-12T20:49:18.028Z,98635.45
2019-02-12T20:51:47.144Z,98637.73
2019-02-12T20:54:16.234Z,98628.87
2019-02-12T20:56:45.349Z,98629.48
2019-02-12T20:59:14.449Z,98630.59
2019-02-12T21:01:43.574Z,98639.13
2019-02-12T21:04:12.671Z,98634.77
2019-02-12T21:06:41.978Z,98631.36
2019-02-12T21:09:11.085Z,98634.97
2019-02-12T21:11:40.203Z,98631.30
2019-02-12T21:14:09.298Z,98640.62
2019-02-12T21:16:38.453Z,98644.25
2019-02-12T21:19:07.503Z,98646.65
2019-02-12T21:21:36.610Z,98650.69
2019-02-12T21:24:05.695Z,98654.31
2019-02-12T21:26:34.792Z,98661.34
2019-02-12T21:29:03.901Z,98661.63
2019-02-12T21:31:33.014Z,98660.98
2019-02-12T21:34:02.125Z,98658.22
2019-02-12T21:36:31.211Z,98657.88
2019-02-12T21:39:00.343Z,98654.20
2019-02-12T21:41:29.438Z,98644.42
2019-02-12T21:43:58.553Z,98647.27
2019-02-12T21:46:27.647Z,98644.84
2019-02-12T21:48:56.766Z,98648.88
2019-02-12T21:51:25.858Z,98646.03
2019-02-12T21:53:54.972Z,98645.55
2019-02-12T21:56:24.070Z,98650.46
2019-02-12T21:58:53.185Z,98652.42
2019-02-12T22:01:22.279Z,98651.09
2019-02-12T22:03:51.390Z,98655.59
2019-02-12T22:06:20.480Z,98647.70
2019-02-12T22:08:49.577Z,98638.54
2019-02-12T22:11:18.690Z,98638.80
2019-02-12T22:13:47.775Z,98640.22
2019-02-12T22:16:16.895Z,98639.67
2019-02-12T22:18:45.993Z,98638.84
2019-02-12T22:21:15.113Z,98642.02
2019-02-12T22:23:44.196Z,98636.50
2019-02-12T22:26:13.306Z,98634.42
2019-02-12T22:28:42.392Z,98640.36
2019-02-12T22:31:11.532Z,98635.53
2019-02-12T22:33:40.622Z,98643.20
2019-02-12T22:36:09.737Z,98646.03
2019-02-12T22:38:38.828Z,98647.09
2019-02-12T22:41:07.944Z,98648.17
2019-02-12T22:43:37.039Z,98646.74
2019-02-12T22:46:06.153Z,98646.67
2019-02-12T22:48:35.269Z,98653.14
2019-02-12T22:51:04.385Z,98654.75
2019-02-12T22:53:33.656Z,98655.28
2019-02-12T22:56:02.720Z,98665.81
2019-02-12T22:58:32.058Z,98663.70
2019-02-12T23:01:06.966Z,98673.65
2019-02-12T23:03:36.817Z,98674.33
2019-02-12T23:06:06.045Z,98681.48
2019-02-12T23:08:35.172Z,98669.57
2019-02-12T23:11:04.469Z,98677.03
2019-02-12T23:13:33.562Z,98673.88
2019-02-12T23:16:02.681Z,98665.69
2019-02-12T23:18:31.779Z,98664.19
2019-02-12T23:21:01.245Z,98662.67
2019-02-12T23:23:30.345Z,98676.45
2019-02-12T23:25:59.436Z,98669.70
2019-02-12T23:28:28.560Z,98656.69
2019-02-12T23:30:57.681Z,98651.29
2019-02-12T23:33:26.797Z,98654.76
2019-02-12T23:35:55.895Z,98666.13
2019-02-12T23:38:25.003Z,98667.89
2019-02-12T23:40:54.102Z,98676.46
2019-02-12T23:43:23.281Z,98690.13
2019-02-12T23:45:52.385Z,98690.81
2019-02-12T23:48:21.532Z,98696.00
2019-02-12T23:50:50.621Z,98698.78
2019-02-12T23:53:19.732Z,98696.68
2019-02-12T23:55:48.826Z,98698.44
2019-02-12T23:58:17.942Z,98690.48
